Westport, Indiana
Current Conditions -  °F | °C
As of 6:45 PM on Friday 31 Oct 2014 (Local Time) from KBAK Reporting Station
Overcast Overcast  
Wind Chill: 26°   Ceiling: 900
Heat Index: 36°   Visibility: 7mi
Dew Point: 34°   Wind: 15mph
Humidity: 93%   Direction: 310°NW
Pressure: 30.02"   Gusts: NA
Location:  39.18°N, 85.57°W
Report Text: KBAK 312245Z 31013KT 7SM BKN009 OVC015 02/01 A3002
Loading
Personal Weather Stations






























Interactive Weather Map
Tropical Storm Tracking
New forecast layout! Learn more

10-Day Weather Forecast

Advertisements
Track Severe Weather on mobile